KISM

Kissimmee Gateway Airport

Orlando, Florida, USA
KISM 161918Z 1619/1718 21004KT P6SM VCTS SCT040CB SCT250 TEMPO 1619/1621 VRB20G30KT 3SM TSRA BKN040CB FM170100 21004KT P6SM SCT050 SCT120 FM171400 22004KT P6SM FEW025 SCT250
Issued Valid From Valid To
Jul-16 @ 19:18 UTC
(41 minutes ago)
Jul-16 @ 19:00 UTC
(59 minutes ago)
Jul-17 @ 18:00 UTC
(in 22 hours)
Jul-16 @ 19:00 to Jul-17 @ 01:00
KISM 161918Z 1619/1718 21004KT P6SM VCTS SCT040CB SCT250
Wind Visibility Clouds Conditions
210° at 4 knots Greater than 6 miles
  • Scattered at 4,000' AGL
  • Scattered at 25,000' AGL
  • Area Thunderstorm
Temporary Jul-16 @ 19:00 to Jul-16 @ 21:00
TEMPO 1619/1621 VRB20G30KT 3SM TSRA BKN040CB
Wind Visibility Clouds Conditions
Variable at 20 knots
 Gusting to 30 knots
3 miles
  • Broken at 4,000' AGL
  • Thunderstorm
  • Rain
From Jul-17 @ 01:00 to Jul-17 @ 14:00
FM170100 21004KT P6SM SCT050 SCT120
Wind Visibility Clouds
210° at 4 knots Greater than 6 miles
  • Scattered at 5,000' AGL
  • Scattered at 12,000' AGL
From Jul-17 @ 14:00 to Jul-17 @ 18:00
FM171400 22004KT P6SM FEW025 SCT250
Wind Visibility Clouds
220° at 4 knots Greater than 6 miles
  • Few at 2,500' AGL
  • Scattered at 25,000' AGL
KISM 161918Z 1619/1718 21004KT P6SM VCTS SCT040CB SCT250 TEMPO 1619/1621 VRB20G30KT 3SM TSRA BKN040CB FM170100 21004KT P6SM SCT050 SCT120 FM171400 22004KT P6SM FEW025 SCT250
Issued Jul-16 @ 19:18 UTC
(41 minutes ago)
Valid From Jul-16 @ 19:00 UTC
(59 minutes ago)
Valid To Jul-17 @ 18:00 UTC
(in 22 hours)
Jul-16 @ 19:00 - Jul-17 @ 01:00
Wind Visibility
210° at 4 knots Greater than 6 miles
Clouds
  • Scattered at 4,000' AGL
  • Scattered at 25,000' AGL
Conditions
  • Area Thunderstorm
Temporary Jul-16 @ 19:00 - Jul-16 @ 21:00
Wind Visibility
Variable at 20 knots
 Gusting to 30 knots
3 miles
Clouds
  • Broken at 4,000' AGL
Conditions
  • Thunderstorm
  • Rain
From Jul-17 @ 01:00 - Jul-17 @ 14:00
Wind Visibility
210° at 4 knots Greater than 6 miles
Clouds
  • Scattered at 5,000' AGL
  • Scattered at 12,000' AGL
From Jul-17 @ 14:00 - Jul-17 @ 18:00
Wind Visibility
220° at 4 knots Greater than 6 miles
Clouds
  • Few at 2,500' AGL
  • Scattered at 25,000' AGL